Time;durP1;ratioP1;P1;durP2;ratioP2;P2;SDS_P1;SDS_P2;PMS_P1;PMS_P2;Temp;Humidity;BMP_temperature;BMP_pressure;BME280_temperature;BME280_humidity;BME280_pressure;Samples;Min_cycle;Max_cycle;Signal;HPM_P1;HPM_P2
2023/04/20 00:01:06;;;;;;;17.55;5.07;;;4.70;97.30;;;;;;5022608;28;20049;-74
2023/04/20 00:03:34;;;;;;;18.90;4.85;;;4.70;97.40;;;;;;5025124;28;20060;-74
2023/04/20 00:06:01;;;;;;;16.23;4.90;;;4.70;98.00;;;;;;5018707;28;20489;-74
2023/04/20 00:11:14;;;;;;;21.02;5.38;;;4.80;97.30;;;;;;4993186;28;20058;-75
2023/04/20 00:13:41;;;;;;;24.55;6.30;;;4.80;97.00;;;;;;5005207;28;20053;-75
2023/04/20 00:16:08;;;;;;;17.85;5.93;;;4.80;97.10;;;;;;5003089;28;20063;-75
2023/04/20 00:18:35;;;;;;;21.90;6.15;;;4.80;97.00;;;;;;4989407;28;20046;-75
2023/04/20 00:21:02;;;;;;;27.20;5.43;;;4.80;97.20;;;;;;4999753;28;20749;-75
2023/04/20 00:23:29;;;;;;;17.25;5.63;;;4.80;96.90;;;;;;4998048;28;20164;-75
2023/04/20 00:25:55;;;;;;;16.30;5.22;;;4.90;96.30;;;;;;5002604;28;20681;-75
2023/04/20 00:28:22;;;;;;;24.05;5.95;;;4.90;96.80;;;;;;5003865;28;20045;-75
2023/04/20 00:30:49;;;;;;;26.08;5.28;;;4.90;96.50;;;;;;4994692;28;20463;-75
2023/04/20 00:33:16;;;;;;;12.20;4.85;;;4.90;97.10;;;;;;5002947;28;20053;-75
2023/04/20 00:35:43;;;;;;;25.80;5.57;;;4.90;97.10;;;;;;5000349;28;20048;-75
2023/04/20 00:38:09;;;;;;;21.25;5.65;;;5.00;96.60;;;;;;5006896;28;20800;-75
2023/04/20 00:40:36;;;;;;;16.30;5.10;;;5.00;96.90;;;;;;5003528;28;20046;-75
2023/04/20 00:43:11;;;;;;;25.20;6.22;;;5.00;96.70;;;;;;4997181;28;20057;-75
2023/04/20 00:45:38;;;;;;;27.40;5.68;;;5.00;97.20;;;;;;4999678;28;20129;-75
2023/04/20 00:48:06;;;;;;;25.67;5.53;;;5.00;96.80;;;;;;5002155;28;20050;-75
2023/04/20 00:50:33;;;;;;;19.73;5.03;;;5.00;97.20;;;;;;5004006;28;20392;-75
2023/04/20 00:53:02;;;;;;;19.00;5.35;;;5.00;96.90;;;;;;5002293;28;20716;-75
2023/04/20 00:55:30;;;;;;;20.77;5.07;;;5.00;96.40;;;;;;4996979;28;20054;-75
2023/04/20 00:57:57;;;;;;;16.55;5.05;;;5.00;96.00;;;;;;4999661;28;20046;-75
2023/04/20 01:00:25;;;;;;;31.40;5.70;;;5.10;96.80;;;;;;5000570;28;20052;-75
2023/04/20 01:02:52;;;;;;;17.02;5.18;;;5.10;96.60;;;;;;5008168;28;20352;-75
2023/04/20 01:05:20;;;;;;;19.38;5.80;;;5.10;95.70;;;;;;5003566;28;20804;-75
2023/04/20 01:07:48;;;;;;;17.73;5.65;;;5.10;95.70;;;;;;5001209;28;20046;-75
2023/04/20 01:10:15;;;;;;;19.92;4.88;;;5.10;96.40;;;;;;4993961;28;20865;-75
2023/04/20 01:12:42;;;;;;;21.40;5.95;;;5.10;96.00;;;;;;4984755;28;20486;-75
2023/04/20 01:15:09;;;;;;;22.98;5.80;;;5.10;95.60;;;;;;4991243;28;20089;-75
2023/04/20 01:17:38;;;;;;;19.50;5.47;;;5.10;96.00;;;;;;5001661;28;20500;-75
2023/04/20 01:20:13;;;;;;;25.17;5.90;;;5.10;96.10;;;;;;4992167;28;20129;-75
2023/04/20 01:22:48;;;;;;;16.17;5.47;;;5.20;96.20;;;;;;4988656;28;20057;-75
2023/04/20 01:25:15;;;;;;;20.23;5.30;;;5.20;95.60;;;;;;4995148;28;20057;-75
2023/04/20 01:30:13;;;;;;;24.52;5.78;;;5.20;95.80;;;;;;5023082;28;20678;-75
2023/04/20 01:32:40;;;;;;;29.88;6.05;;;5.20;95.80;;;;;;5021341;28;20501;-75
2023/04/20 01:35:07;;;;;;;23.15;5.40;;;5.20;95.90;;;;;;5021127;28;20077;-74
2023/04/20 01:37:35;;;;;;;20.40;4.93;;;5.20;96.00;;;;;;5022957;28;20553;-74
2023/04/20 01:40:03;;;;;;;25.20;5.22;;;5.20;95.90;;;;;;5018317;28;20063;-74
2023/04/20 01:42:30;;;;;;;14.75;5.15;;;5.30;96.20;;;;;;5021583;28;20154;-74
2023/04/20 01:44:57;;;;;;;21.98;6.53;;;5.20;95.80;;;;;;5020118;28;20115;-75
2023/04/20 01:47:23;;;;;;;19.98;5.10;;;5.20;95.00;;;;;;5024961;23;20417;-75
2023/04/20 01:49:50;;;;;;;21.83;6.07;;;5.20;95.60;;;;;;5022974;28;20139;-74
2023/04/20 01:52:17;;;;;;;29.85;6.30;;;5.20;95.60;;;;;;5038846;28;20053;-75
2023/04/20 01:54:44;;;;;;;27.05;5.75;;;5.20;95.60;;;;;;5038921;28;20052;-75
2023/04/20 01:57:11;;;;;;;20.30;5.32;;;5.20;95.50;;;;;;5023668;28;20076;-74
2023/04/20 01:59:38;;;;;;;19.65;5.88;;;5.20;95.80;;;;;;5010994;28;20050;-75
2023/04/20 02:02:05;;;;;;;24.63;6.47;;;5.20;95.70;;;;;;5019273;28;20508;-74
2023/04/20 02:04:33;;;;;;;26.15;5.70;;;5.20;95.90;;;;;;5034649;23;20056;-74
2023/04/20 02:07:00;;;;;;;22.20;6.25;;;5.20;95.80;;;;;;4982318;28;20065;-74
2023/04/20 02:09:27;;;;;;;26.67;6.63;;;5.20;96.40;;;;;;4978886;28;20043;-74
2023/04/20 02:11:53;;;;;;;18.02;5.45;;;5.20;97.20;;;;;;4978614;28;20381;-74
2023/04/20 02:14:20;;;;;;;20.70;6.35;;;5.20;97.50;;;;;;4982264;28;20089;-74
2023/04/20 02:16:47;;;;;;;24.08;6.78;;;5.10;97.90;;;;;;4985034;28;20069;-74
2023/04/20 02:19:14;;;;;;;32.13;6.30;;;5.10;97.90;;;;;;4984045;28;20058;-74
2023/04/20 02:21:42;;;;;;;16.50;5.60;;;5.10;98.40;;;;;;4985437;28;20681;-74
2023/04/20 02:24:08;;;;;;;21.33;5.72;;;5.10;98.60;;;;;;4984324;28;20050;-74
2023/04/20 02:26:35;;;;;;;28.00;6.05;;;5.00;98.30;;;;;;4982909;28;20506;-74
2023/04/20 02:29:02;;;;;;;17.27;5.63;;;5.00;98.50;;;;;;4996674;28;20064;-75
2023/04/20 02:31:29;;;;;;;26.75;6.20;;;5.00;98.90;;;;;;4992317;28;20047;-75
2023/04/20 02:33:56;;;;;;;21.98;5.68;;;5.00;99.10;;;;;;4992478;28;20057;-75
2023/04/20 02:36:22;;;;;;;21.40;5.82;;;5.00;98.70;;;;;;4991012;28;20053;-76
2023/04/20 02:38:49;;;;;;;25.45;5.78;;;5.00;99.10;;;;;;4993548;28;20054;-76
2023/04/20 02:41:17;;;;;;;26.77;6.20;;;5.00;99.50;;;;;;4998394;28;20590;-76
2023/04/20 02:43:44;;;;;;;22.50;5.40;;;5.00;98.70;;;;;;4994430;28;20054;-76
2023/04/20 02:46:11;;;;;;;25.70;5.85;;;5.00;99.10;;;;;;4984144;28;20058;-75
2023/04/20 02:48:38;;;;;;;20.95;5.40;;;5.00;99.40;;;;;;4996166;28;20046;-75
2023/04/20 02:51:05;;;;;;;24.88;6.28;;;5.00;99.30;;;;;;4991819;28;20061;-75
2023/04/20 02:53:31;;;;;;;26.35;5.75;;;5.00;99.30;;;;;;4976780;28;20837;-76
2023/04/20 02:55:58;;;;;;;20.92;6.03;;;5.00;99.20;;;;;;4977427;28;20043;-75
2023/04/20 02:58:25;;;;;;;23.00;6.65;;;5.00;99.50;;;;;;4996593;28;20049;-75
2023/04/20 03:01:01;;;;;;;24.45;6.35;;;5.00;99.60;;;;;;4989943;28;20050;-75
2023/04/20 03:03:29;;;;;;;18.38;5.65;;;5.00;99.50;;;;;;4998821;28;20444;-76
2023/04/20 03:05:55;;;;;;;23.90;6.63;;;5.00;99.60;;;;;;4990849;28;20134;-76
2023/04/20 03:08:22;;;;;;;21.17;6.05;;;5.00;99.70;;;;;;4997920;28;20042;-76
2023/04/20 03:10:49;;;;;;;25.42;7.05;;;5.10;100.00;;;;;;4994911;28;20097;-76
2023/04/20 03:13:16;;;;;;;23.52;6.15;;;5.10;100.00;;;;;;4998329;28;20061;-76
2023/04/20 03:15:43;;;;;;;20.52;5.75;;;5.10;99.70;;;;;;4991615;28;20121;-77
2023/04/20 03:18:10;;;;;;;20.20;5.63;;;5.10;100.00;;;;;;4998884;28;20042;-77
2023/04/20 03:20:37;;;;;;;30.88;6.90;;;5.10;100.00;;;;;;5001578;28;20046;-77
2023/04/20 03:23:04;;;;;;;32.15;7.07;;;5.10;100.00;;;;;;4999507;28;20050;-77
2023/04/20 03:25:31;;;;;;;20.42;5.60;;;5.10;100.00;;;;;;4987005;28;20076;-77
2023/04/20 03:27:58;;;;;;;26.15;6.85;;;5.20;100.00;;;;;;5001447;28;20042;-77
2023/04/20 03:30:25;;;;;;;27.13;6.13;;;5.10;100.00;;;;;;4990063;28;20503;-77
2023/04/20 03:32:52;;;;;;;19.88;6.45;;;5.20;100.00;;;;;;4991244;28;20042;-76
2023/04/20 03:35:19;;;;;;;24.13;6.47;;;5.20;100.00;;;;;;5004684;28;20160;-76
2023/04/20 03:37:46;;;;;;;27.27;6.60;;;5.20;100.00;;;;;;4988202;28;20768;-77
2023/04/20 03:40:13;;;;;;;23.65;6.75;;;5.20;100.00;;;;;;4994147;28;20446;-76
2023/04/20 03:42:40;;;;;;;26.05;6.65;;;5.20;100.00;;;;;;4989102;28;20054;-76
2023/04/20 03:45:07;;;;;;;25.20;6.45;;;5.20;100.00;;;;;;4991721;28;20444;-76
2023/04/20 03:47:34;;;;;;;17.95;7.50;;;5.20;100.00;;;;;;4986712;28;20069;-76
2023/04/20 03:50:02;;;;;;;32.22;6.68;;;5.20;100.00;;;;;;4999257;28;20050;-76
2023/04/20 03:52:28;;;;;;;21.13;6.72;;;5.20;100.00;;;;;;4990170;28;20042;-76
2023/04/20 03:54:55;;;;;;;27.25;7.40;;;5.20;100.00;;;;;;5000178;28;20053;-76
2023/04/20 03:57:22;;;;;;;21.70;6.88;;;5.20;100.00;;;;;;4995095;28;20046;-76
2023/04/20 03:59:49;;;;;;;26.40;7.03;;;5.20;100.00;;;;;;4989049;28;20054;-76
2023/04/20 04:02:16;;;;;;;22.95;6.82;;;5.20;100.00;;;;;;4996170;28;20050;-75
2023/04/20 04:04:44;;;;;;;31.75;7.10;;;5.20;100.00;;;;;;4990835;28;20046;-76
2023/04/20 04:07:11;;;;;;;33.28;7.18;;;5.20;100.00;;;;;;4992909;28;20921;-77
2023/04/20 04:09:38;;;;;;;17.05;6.15;;;5.20;100.00;;;;;;4981510;28;20045;-76
2023/04/20 04:12:05;;;;;;;21.35;7.22;;;5.20;100.00;;;;;;4992165;28;20235;-77
2023/04/20 04:14:33;;;;;;;26.02;6.95;;;5.20;100.00;;;;;;4990800;28;20125;-76
2023/04/20 04:17:00;;;;;;;28.52;6.57;;;5.20;100.00;;;;;;4988224;28;20129;-77
2023/04/20 04:19:27;;;;;;;32.20;7.13;;;5.20;100.00;;;;;;4988485;28;20077;-76
2023/04/20 04:21:54;;;;;;;33.13;6.88;;;5.20;100.00;;;;;;4984670;28;20050;-76
2023/04/20 04:24:21;;;;;;;35.13;7.10;;;5.20;100.00;;;;;;4982646;28;20667;-74
2023/04/20 04:26:48;;;;;;;22.00;6.90;;;5.20;100.00;;;;;;4991300;28;20048;-75
2023/04/20 04:29:15;;;;;;;27.63;7.50;;;5.20;100.00;;;;;;4995280;28;20084;-75
2023/04/20 04:31:42;;;;;;;24.00;7.45;;;5.20;100.00;;;;;;4983461;28;20454;-75
2023/04/20 04:34:09;;;;;;;26.65;7.28;;;5.20;100.00;;;;;;4985667;28;20046;-74
2023/04/20 04:36:36;;;;;;;32.08;7.10;;;5.20;100.00;;;;;;4987527;28;20074;-76
2023/04/20 04:39:03;;;;;;;29.27;7.00;;;5.20;100.00;;;;;;4989953;28;20050;-76
2023/04/20 04:41:30;;;;;;;31.95;7.63;;;5.20;100.00;;;;;;4983921;28;20054;-76
2023/04/20 04:43:58;;;;;;;25.15;7.60;;;5.20;100.00;;;;;;4991964;28;20371;-76
2023/04/20 04:46:26;;;;;;;28.20;7.30;;;5.20;100.00;;;;;;4986421;28;20383;-75
2023/04/20 04:48:53;;;;;;;30.75;7.55;;;5.30;100.00;;;;;;4985942;28;20491;-75
2023/04/20 04:51:20;;;;;;;29.58;9.68;;;5.30;100.00;;;;;;4980608;28;20042;-74
2023/04/20 04:53:48;;;;;;;37.30;9.57;;;5.30;100.00;;;;;;4996120;28;20689;-73
2023/04/20 04:56:17;;;;;;;18.73;7.50;;;5.30;100.00;;;;;;4981884;28;20054;-73
2023/04/20 04:58:47;;;;;;;27.75;8.45;;;5.30;100.00;;;;;;4986303;28;20834;-75
2023/04/20 05:01:13;;;;;;;36.25;7.85;;;5.30;100.00;;;;;;4988361;28;20061;-73
2023/04/20 05:03:40;;;;;;;27.20;8.07;;;5.30;100.00;;;;;;4983854;28;20125;-73
2023/04/20 05:06:07;;;;;;;27.00;7.70;;;5.30;100.00;;;;;;4985439;28;20065;-73
2023/04/20 05:08:34;;;;;;;27.63;7.85;;;5.30;100.00;;;;;;4984872;28;20725;-76
2023/04/20 05:11:01;;;;;;;33.85;7.80;;;5.30;100.00;;;;;;4983143;28;20050;-73
2023/04/20 05:13:28;;;;;;;24.77;7.05;;;5.30;100.00;;;;;;4989155;28;20054;-75
2023/04/20 05:15:55;;;;;;;28.83;7.70;;;5.30;100.00;;;;;;4999863;28;20050;-74
2023/04/20 05:18:22;;;;;;;33.13;8.13;;;5.40;100.00;;;;;;4991335;28;20542;-77
2023/04/20 05:20:48;;;;;;;29.58;8.57;;;5.30;100.00;;;;;;4997254;28;20683;-80
2023/04/20 05:23:15;;;;;;;28.90;6.97;;;5.40;100.00;;;;;;4986934;28;20629;-76
2023/04/20 05:25:43;;;;;;;24.17;6.57;;;5.40;100.00;;;;;;4992481;28;20104;-77
2023/04/20 05:28:10;;;;;;;37.92;7.65;;;5.40;100.00;;;;;;5004596;28;20046;-80
2023/04/20 05:30:36;;;;;;;30.85;7.25;;;5.40;100.00;;;;;;4999380;28;20056;-76
2023/04/20 05:33:03;;;;;;;27.00;7.50;;;5.40;100.00;;;;;;5000819;28;20046;-76
2023/04/20 05:35:30;;;;;;;27.85;7.85;;;5.40;100.00;;;;;;4985413;28;20058;-75
2023/04/20 05:37:59;;;;;;;32.17;6.63;;;5.40;100.00;;;;;;4991724;28;20046;-75
2023/04/20 05:40:26;;;;;;;21.05;7.38;;;5.40;100.00;;;;;;4991937;28;20057;-75
2023/04/20 05:42:53;;;;;;;25.67;7.13;;;5.40;100.00;;;;;;4985101;28;20054;-76
2023/04/20 05:45:20;;;;;;;33.85;8.75;;;5.40;100.00;;;;;;4982795;28;20479;-75
2023/04/20 05:47:54;;;;;;;33.45;8.65;;;5.50;100.00;;;;;;4980094;28;20679;-75
2023/04/20 05:50:25;;;;;;;31.10;6.57;;;5.50;100.00;;;;;;5006469;28;20690;-75
2023/04/20 05:52:52;;;;;;;25.25;7.65;;;5.50;100.00;;;;;;4984467;28;20061;-75
2023/04/20 05:55:19;;;;;;;22.83;6.90;;;5.50;100.00;;;;;;4987999;28;20054;-75
2023/04/20 05:57:50;;;;;;;28.00;7.60;;;5.50;100.00;;;;;;4982912;28;20049;-75
2023/04/20 06:00:19;;;;;;;34.17;6.70;;;5.60;100.00;;;;;;4999019;28;20109;-75
2023/04/20 06:02:48;;;;;;;30.70;7.40;;;5.60;100.00;;;;;;4985863;28;20117;-76
2023/04/20 06:05:16;;;;;;;30.70;7.30;;;5.60;100.00;;;;;;4984128;28;20059;-75
2023/04/20 06:07:43;;;;;;;33.95;7.47;;;5.60;100.00;;;;;;4980817;28;20113;-76
2023/04/20 06:10:10;;;;;;;26.95;8.40;;;5.60;100.00;;;;;;4980132;28;20431;-76
2023/04/20 06:12:37;;;;;;;28.90;7.63;;;5.70;100.00;;;;;;4980889;28;20046;-75
2023/04/20 06:15:07;;;;;;;33.80;7.60;;;5.70;100.00;;;;;;4984947;28;20058;-75
2023/04/20 06:17:36;;;;;;;25.65;7.10;;;5.80;100.00;;;;;;4995992;28;20705;-75
2023/04/20 06:20:04;;;;;;;34.20;7.47;;;5.90;100.00;;;;;;4987754;28;20070;-76
2023/04/20 06:22:31;;;;;;;26.10;6.78;;;5.90;100.00;;;;;;4984057;28;20047;-76
2023/04/20 06:24:59;;;;;;;22.90;7.18;;;6.00;100.00;;;;;;4984710;28;20064;-76
2023/04/20 06:27:26;;;;;;;31.98;7.75;;;6.10;100.00;;;;;;4986791;28;20950;-75
2023/04/20 06:29:53;;;;;;;27.30;7.65;;;6.10;100.00;;;;;;4982670;28;20498;-76
2023/04/20 06:32:20;;;;;;;33.03;7.07;;;6.20;100.00;;;;;;4976082;28;20415;-75
2023/04/20 06:34:47;;;;;;;31.77;7.90;;;6.20;100.00;;;;;;4976137;28;20129;-74
2023/04/20 06:37:14;;;;;;;30.50;7.22;;;6.20;100.00;;;;;;4981807;28;20054;-74
2023/04/20 06:39:41;;;;;;;29.60;7.60;;;6.30;100.00;;;;;;4987102;28;20069;-74
2023/04/20 06:42:09;;;;;;;30.00;7.00;;;6.30;100.00;;;;;;4983363;28;20075;-74
2023/04/20 06:44:36;;;;;;;38.35;8.13;;;6.40;100.00;;;;;;4988571;28;20050;-75
2023/04/20 06:47:03;;;;;;;29.08;7.07;;;6.40;100.00;;;;;;4982976;28;20609;-75
2023/04/20 06:49:30;;;;;;;30.40;8.90;;;6.40;99.30;;;;;;4987423;28;20414;-75
2023/04/20 06:51:56;;;;;;;23.55;7.05;;;6.40;99.80;;;;;;4983563;28;20734;-75
2023/04/20 06:54:23;;;;;;;23.98;6.50;;;6.40;98.90;;;;;;5006283;28;20502;-75
2023/04/20 06:56:50;;;;;;;31.83;7.28;;;6.40;99.70;;;;;;4983832;28;20053;-76
2023/04/20 06:59:18;;;;;;;29.92;8.40;;;6.40;99.40;;;;;;4980224;28;20043;-75
2023/04/20 07:01:45;;;;;;;31.65;7.43;;;6.40;99.40;;;;;;4987485;28;20058;-75
2023/04/20 07:04:12;;;;;;;27.95;7.38;;;6.40;98.80;;;;;;4985419;28;20073;-76
2023/04/20 07:06:39;;;;;;;18.35;6.82;;;6.40;99.10;;;;;;4975158;28;20068;-74
2023/04/20 07:09:07;;;;;;;26.13;7.32;;;6.50;99.20;;;;;;4977527;28;20054;-74
2023/04/20 07:11:34;;;;;;;26.35;7.53;;;6.50;98.90;;;;;;4990056;28;20047;-74
2023/04/20 07:14:01;;;;;;;22.08;7.90;;;6.60;99.00;;;;;;4973214;28;20134;-74
2023/04/20 07:16:28;;;;;;;27.95;8.10;;;6.60;99.40;;;;;;4974907;28;20047;-73
2023/04/20 07:18:54;;;;;;;27.40;8.65;;;6.60;98.30;;;;;;4985106;28;20042;-73
2023/04/20 07:21:21;;;;;;;22.85;7.63;;;6.60;98.70;;;;;;4983209;28;20059;-73
2023/04/20 07:23:49;;;;;;;20.10;6.70;;;6.60;98.20;;;;;;4995954;28;20046;-74
2023/04/20 07:26:16;;;;;;;34.35;7.82;;;6.70;98.40;;;;;;4975090;28;20845;-74
2023/04/20 07:28:43;;;;;;;34.03;8.50;;;6.70;98.50;;;;;;4973687;28;20062;-75
2023/04/20 07:31:10;;;;;;;30.65;7.97;;;6.70;98.50;;;;;;4981368;28;20569;-74
2023/04/20 07:33:36;;;;;;;37.08;8.23;;;6.80;98.20;;;;;;4970885;28;20049;-74
2023/04/20 07:36:05;;;;;;;31.02;8.00;;;6.80;98.20;;;;;;4972143;28;20054;-74
2023/04/20 07:38:31;;;;;;;37.03;8.73;;;6.90;98.10;;;;;;4976367;28;20162;-73
2023/04/20 07:40:58;;;;;;;72.18;12.75;;;6.90;97.80;;;;;;4993990;28;20042;-75
2023/04/20 07:43:25;;;;;;;34.65;8.57;;;7.00;97.20;;;;;;4980180;28;20062;-74
2023/04/20 07:45:52;;;;;;;29.02;8.02;;;7.10;97.10;;;;;;4980531;28;20050;-75
2023/04/20 07:48:19;;;;;;;27.60;8.15;;;7.20;96.50;;;;;;4985345;28;20058;-77
2023/04/20 07:50:49;;;;;;;29.10;8.32;;;7.30;96.50;;;;;;4981116;28;20651;-77
2023/04/20 07:53:16;;;;;;;20.33;7.50;;;7.30;96.70;;;;;;4998294;28;20161;-77
2023/04/20 07:55:43;;;;;;;33.40;8.35;;;7.40;96.30;;;;;;4990631;28;20070;-79
2023/04/20 07:58:10;;;;;;;32.65;8.82;;;7.50;96.60;;;;;;4995674;28;20075;-79
2023/04/20 08:00:37;;;;;;;25.17;8.15;;;7.60;95.60;;;;;;4988522;28;20086;-80
2023/04/20 08:03:04;;;;;;;28.20;8.15;;;7.70;96.20;;;;;;4989139;28;20652;-79
2023/04/20 08:05:32;;;;;;;28.60;9.43;;;7.70;95.10;;;;;;4995408;28;20054;-80
2023/04/20 08:07:59;;;;;;;20.85;8.10;;;7.80;95.50;;;;;;4987596;28;20057;-78
2023/04/20 08:10:26;;;;;;;24.67;8.68;;;7.90;95.50;;;;;;4980056;28;20073;-77
2023/04/20 08:12:52;;;;;;;23.35;9.15;;;8.00;95.30;;;;;;4987850;28;20042;-77
2023/04/20 08:15:19;;;;;;;21.63;8.85;;;8.00;94.20;;;;;;5009199;28;20050;-78
2023/04/20 08:17:46;;;;;;;27.02;8.50;;;8.00;93.90;;;;;;4990914;28;20124;-78
2023/04/20 08:20:13;;;;;;;29.60;8.90;;;8.10;94.10;;;;;;4993513;28;20507;-79
2023/04/20 08:22:40;;;;;;;30.23;9.55;;;8.10;94.10;;;;;;4985539;28;20053;-79
2023/04/20 08:25:07;;;;;;;30.63;8.98;;;8.20;93.60;;;;;;5001749;28;20116;-79
2023/04/20 08:27:34;;;;;;;18.77;8.07;;;8.20;94.20;;;;;;5000250;28;20054;-78
2023/04/20 08:30:03;;;;;;;28.88;8.30;;;8.30;94.40;;;;;;4990708;28;20113;-79
2023/04/20 08:32:30;;;;;;;38.00;8.52;;;8.30;94.10;;;;;;4989917;28;20491;-79
2023/04/20 08:34:56;;;;;;;32.25;8.55;;;8.40;93.90;;;;;;4999622;28;20053;-79
2023/04/20 08:37:24;;;;;;;23.02;9.05;;;8.50;93.10;;;;;;4993112;28;20050;-78
2023/04/20 08:39:51;;;;;;;27.35;9.73;;;8.70;93.10;;;;;;4990805;28;20750;-78
2023/04/20 08:42:18;;;;;;;25.00;9.70;;;8.80;93.70;;;;;;4995424;28;20050;-77
2023/04/20 08:44:45;;;;;;;21.40;9.52;;;9.20;93.30;;;;;;4996417;28;20064;-77
2023/04/20 08:47:13;;;;;;;24.70;10.10;;;9.50;92.20;;;;;;4985639;28;20093;-78
2023/04/20 08:49:40;;;;;;;27.73;9.77;;;9.90;93.30;;;;;;4999586;28;20561;-79
2023/04/20 08:52:09;;;;;;;28.88;9.15;;;10.40;88.90;;;;;;4985954;28;20082;-79
2023/04/20 08:54:37;;;;;;;28.35;9.40;;;10.50;86.50;;;;;;4989460;28;20116;-78
2023/04/20 08:57:18;;;;;;;30.98;9.88;;;10.50;87.00;;;;;;4993664;28;20053;-78
2023/04/20 08:59:45;;;;;;;22.80;8.93;;;10.60;86.10;;;;;;4982370;28;20723;-78
2023/04/20 09:02:13;;;;;;;22.17;9.15;;;10.90;85.40;;;;;;4985739;28;20066;-78
2023/04/20 09:04:40;;;;;;;22.05;9.00;;;11.10;85.50;;;;;;4983460;28;20126;-78
2023/04/20 09:07:17;;;;;;;20.95;8.80;;;11.40;83.90;;;;;;5003069;28;20133;-78
2023/04/20 09:09:57;;;;;;;21.52;9.50;;;11.50;81.30;;;;;;4983212;28;20112;-78
2023/04/20 09:12:24;;;;;;;25.10;8.60;;;11.40;82.00;;;;;;4986891;28;20137;-79
2023/04/20 09:14:52;;;;;;;28.10;8.82;;;11.50;82.30;;;;;;4986970;28;20666;-78
2023/04/20 09:17:38;;;;;;;25.58;8.48;;;11.60;82.50;;;;;;4995833;28;20086;-78
2023/04/20 09:20:07;;;;;;;28.40;8.88;;;12.00;81.40;;;;;;4994116;28;20108;-78
2023/04/20 09:22:35;;;;;;;21.30;8.32;;;12.40;81.90;;;;;;4987314;28;20054;-79
2023/04/20 09:25:15;;;;;;;30.05;9.10;;;12.80;79.90;;;;;;4986913;28;20483;-78
2023/04/20 09:27:42;;;;;;;24.80;9.20;;;13.60;81.70;;;;;;4983338;28;20390;-77
2023/04/20 09:30:10;;;;;;;20.65;8.45;;;14.60;77.40;;;;;;4976765;28;20065;-78
2023/04/20 09:32:36;;;;;;;26.90;7.72;;;15.30;74.80;;;;;;4977490;28;20054;-77
2023/04/20 09:35:05;;;;;;;20.10;7.70;;;16.10;73.80;;;;;;4973625;28;20042;-79
2023/04/20 09:37:32;;;;;;;17.60;7.45;;;16.60;70.30;;;;;;4988167;28;20074;-79
2023/04/20 09:39:59;;;;;;;16.92;7.43;;;17.20;68.00;;;;;;4974700;28;20051;-79
2023/04/20 09:42:27;;;;;;;18.20;7.93;;;17.80;65.70;;;;;;4991807;28;20058;-78
2023/04/20 09:44:55;;;;;;;15.00;7.82;;;17.80;67.20;;;;;;4979431;28;20161;-78
2023/04/20 09:47:24;;;;;;;19.10;7.90;;;17.80;67.70;;;;;;4986058;28;20061;-79
2023/04/20 09:49:53;;;;;;;17.10;6.82;;;17.70;65.90;;;;;;4983464;28;20568;-78
2023/04/20 09:52:21;;;;;;;20.88;7.82;;;18.30;64.00;;;;;;4985017;28;20116;-79
2023/04/20 09:54:50;;;;;;;17.10;7.63;;;18.30;65.10;;;;;;5000428;28;20504;-78
2023/04/20 09:57:18;;;;;;;18.20;8.02;;;18.50;64.10;;;;;;4989553;28;20625;-81
2023/04/20 09:59:46;;;;;;;15.90;7.50;;;18.50;62.40;;;;;;4985909;28;20060;-78
2023/04/20 10:02:13;;;;;;;17.48;8.93;;;18.20;64.30;;;;;;4977429;28;20065;-80
2023/04/20 10:04:54;;;;;;;16.20;8.18;;;17.80;63.20;;;;;;4988715;28;20125;-79
2023/04/20 10:07:26;;;;;;;19.05;8.00;;;17.50;66.90;;;;;;4986379;28;20742;-79
2023/04/20 10:10:08;;;;;;;20.55;7.95;;;17.50;65.30;;;;;;4993717;28;20398;-79
2023/04/20 10:12:50;;;;;;;17.30;7.38;;;18.70;64.70;;;;;;4991704;28;20383;-76
2023/04/20 10:15:18;;;;;;;15.02;8.27;;;19.30;62.70;;;;;;4995424;28;20549;-79
2023/04/20 10:17:44;;;;;;;11.57;7.07;;;19.60;60.30;;;;;;4984613;28;20521;-78
2023/04/20 10:20:26;;;;;;;13.95;7.15;;;19.60;57.70;;;;;;4992022;28;20133;-78
2023/04/20 10:23:06;;;;;;;14.85;6.90;;;19.00;58.80;;;;;;4988167;28;20042;-77
2023/04/20 10:25:33;;;;;;;12.75;7.18;;;18.50;60.50;;;;;;4989281;28;20157;-77
2023/04/20 10:28:04;;;;;;;14.80;7.22;;;18.10;59.70;;;;;;4994507;28;20435;-77
2023/04/20 10:30:32;;;;;;;14.80;7.90;;;17.60;62.90;;;;;;4990563;28;20129;-78
2023/04/20 10:33:06;;;;;;;15.57;8.82;;;17.30;64.70;;;;;;4993782;28;20380;-78
2023/04/20 10:35:50;;;;;;;17.42;8.73;;;16.80;64.60;;;;;;5005691;28;20113;-78
2023/04/20 10:38:33;;;;;;;17.83;8.35;;;16.80;64.80;;;;;;4983165;28;20043;-79
2023/04/20 10:41:11;;;;;;;15.30;8.05;;;16.70;65.50;;;;;;4993535;28;20591;-79
2023/04/20 10:43:41;;;;;;;13.43;8.25;;;16.40;65.40;;;;;;4989101;28;20056;-79
2023/04/20 10:46:23;;;;;;;24.20;7.88;;;16.20;66.60;;;;;;4977881;28;20052;-78
2023/04/20 10:48:55;;;;;;;20.50;9.20;;;16.00;67.10;;;;;;4989464;28;20050;-79
2023/04/20 10:51:22;;;;;;;19.33;8.38;;;15.50;69.00;;;;;;4974133;28;20069;-77
2023/04/20 10:54:06;;;;;;;23.02;9.57;;;15.50;69.00;;;;;;4982570;28;20105;-77
2023/04/20 10:56:38;;;;;;;26.63;8.57;;;15.60;69.80;;;;;;4973080;28;20399;-76
2023/04/20 10:59:15;;;;;;;16.27;7.45;;;15.50;68.60;;;;;;4997032;28;20066;-76
2023/04/20 11:01:44;;;;;;;15.93;6.65;;;15.20;69.80;;;;;;4966474;28;20181;-76
2023/04/20 11:04:11;;;;;;;21.17;8.02;;;15.20;68.50;;;;;;4975261;28;20054;-76
2023/04/20 11:06:46;;;;;;;19.40;7.82;;;15.20;69.40;;;;;;4972293;28;20049;-76
2023/04/20 11:09:17;;;;;;;;;;;15.20;70.30;;;;;;4983185;28;20054;-76
2023/04/20 11:11:45;;;;;;;17.13;7.57;;;15.20;70.20;;;;;;4985588;28;20017;-78
2023/04/20 11:14:12;;;;;;;26.73;8.00;;;15.20;70.70;;;;;;4992795;28;20054;-77
2023/04/20 11:16:50;;;;;;;18.80;7.55;;;15.60;70.90;;;;;;4998044;28;20050;-77
2023/04/20 11:19:32;;;;;;;20.83;7.80;;;16.20;70.20;;;;;;4976651;28;20607;-78
2023/04/20 11:22:01;;;;;;;12.13;6.60;;;16.90;66.50;;;;;;4992959;28;20057;-77
2023/04/20 11:24:30;;;;;;;19.02;7.03;;;17.10;64.80;;;;;;4982869;28;20495;-77
2023/04/20 11:26:57;;;;;;;19.83;7.38;;;17.00;64.40;;;;;;4985988;28;20099;-77
2023/04/20 11:29:31;;;;;;;15.48;6.68;;;17.00;66.40;;;;;;4982870;28;20051;-77
2023/04/20 11:32:00;;;;;;;20.27;6.90;;;17.30;64.90;;;;;;4997472;28;20081;-77
2023/04/20 11:34:27;;;;;;;13.05;6.35;;;18.30;66.10;;;;;;4991588;28;20054;-77
2023/04/20 11:36:55;;;;;;;16.02;6.60;;;19.70;61.00;;;;;;4988446;28;20532;-78
2023/04/20 11:39:24;;;;;;;20.30;7.47;;;20.00;61.60;;;;;;4988081;28;20069;-77
2023/04/20 11:41:51;;;;;;;17.08;6.85;;;19.40;59.10;;;;;;4987549;28;20049;-80
2023/04/20 11:44:22;;;;;;;13.82;6.07;;;19.90;58.00;;;;;;4995640;28;20055;-80
2023/04/20 11:46:52;;;;;;;13.25;6.10;;;19.90;57.40;;;;;;4991064;28;20578;-78
2023/04/20 11:49:20;;;;;;;13.15;6.80;;;19.90;57.40;;;;;;4990887;28;20054;-80
2023/04/20 11:51:47;;;;;;;13.57;6.20;;;19.60;60.20;;;;;;4989422;28;20481;-79
2023/04/20 11:54:14;;;;;;;18.48;6.68;;;19.80;58.90;;;;;;4979004;28;20522;-80
2023/04/20 11:56:41;;;;;;;14.02;6.50;;;19.90;57.20;;;;;;4976001;28;20093;-81
2023/04/20 11:59:08;;;;;;;17.50;6.03;;;19.80;57.50;;;;;;4989910;28;20046;-81
2023/04/20 12:01:36;;;;;;;14.85;5.93;;;19.90;59.20;;;;;;4989504;28;20050;-80
2023/04/20 12:04:03;;;;;;;14.98;7.07;;;20.60;58.40;;;;;;4983004;28;20050;-79
2023/04/20 12:06:31;;;;;;;16.05;6.25;;;20.40;56.40;;;;;;4990103;28;20097;-76
2023/04/20 12:08:59;;;;;;;17.33;5.78;;;20.30;56.70;;;;;;4980067;28;20043;-77
2023/04/20 12:11:26;;;;;;;17.63;6.82;;;20.10;57.00;;;;;;5004714;28;20047;-77
2023/04/20 12:13:53;;;;;;;12.38;6.00;;;20.60;56.10;;;;;;4981509;28;20050;-77
2023/04/20 12:16:20;;;;;;;15.07;6.13;;;20.10;57.70;;;;;;4972753;28;20046;-77
2023/04/20 12:18:47;;;;;;;11.30;5.80;;;20.10;58.20;;;;;;4984895;28;20144;-75
2023/04/20 12:21:14;;;;;;;13.95;5.20;;;20.50;57.30;;;;;;4985700;28;20073;-74
2023/04/20 12:23:42;;;;;;;15.77;6.50;;;21.00;55.00;;;;;;4987541;28;20058;-74
2023/04/20 12:26:10;;;;;;;15.65;5.75;;;21.70;55.40;;;;;;4987481;28;20414;-74
2023/04/20 12:28:36;;;;;;;13.93;5.85;;;22.30;54.00;;;;;;4970922;28;20054;-73
2023/04/20 12:31:03;;;;;;;15.13;5.85;;;22.00;54.00;;;;;;4985866;28;20047;-74
2023/04/20 12:33:30;;;;;;;8.82;5.05;;;22.70;52.00;;;;;;4980643;28;20046;-75
2023/04/20 12:35:57;;;;;;;8.20;5.53;;;22.80;52.40;;;;;;4993868;28;20046;-74
2023/04/20 12:38:24;;;;;;;21.90;6.15;;;23.10;51.20;;;;;;4990831;28;20050;-74
2023/04/20 12:40:51;;;;;;;15.65;6.03;;;23.40;50.40;;;;;;4991952;28;20049;-74
2023/04/20 12:43:18;;;;;;;22.60;5.18;;;23.40;51.50;;;;;;4985872;28;20499;-74
2023/04/20 12:45:44;;;;;;;14.27;6.00;;;23.80;51.00;;;;;;4985290;28;20756;-74
2023/04/20 12:48:11;;;;;;;13.85;6.00;;;23.90;49.10;;;;;;4977939;28;20054;-74
2023/04/20 12:50:38;;;;;;;19.75;7.28;;;24.00;49.10;;;;;;4975145;28;20050;-71